Time,TemperatureF,DewpointF,PressureIn,WindDirection,WindDirectionDegrees,WindSpeedMPH,WindSpeedGustMPH,Humidity,HourlyPrecipIn,Conditions,Clouds,dailyrainin,SoftwareType,DateUTC
2013-02-16 00:02:00,63.0,62.0,29.97,NNW,330,0.0,0.0,96,0.00,,,0.14,,2013-02-16 05:02:00,
2013-02-16 00:12:00,63.0,62.0,29.97,NNW,330,0.0,0.0,96,0.00,,,0.14,,2013-02-16 05:12:00,
2013-02-16 00:22:00,63.0,62.0,29.98,NNW,330,0.0,0.0,96,0.00,,,0.14,,2013-02-16 05:22:00,
2013-02-16 00:32:00,63.0,62.0,29.96,NNW,330,0.0,0.0,96,0.00,,,0.14,,2013-02-16 05:32:00,
2013-02-16 00:42:00,63.0,62.0,29.96,NNW,330,0.0,0.0,96,0.00,,,0.14,,2013-02-16 05:42:00,
2013-02-16 00:52:00,63.0,62.0,29.96,NNW,330,0.0,0.0,96,0.00,,,0.14,,2013-02-16 05:52:00,
2013-02-16 01:02:00,63.0,62.0,29.96,NNW,330,0.0,0.0,96,0.00,,,0.14,,2013-02-16 06:02:00,
2013-02-16 01:11:00,63.0,62.0,29.96,NNW,330,0.0,0.0,96,0.00,,,0.14,,2013-02-16 06:11:00,
2013-02-16 01:21:00,63.0,62.0,29.95,NNW,330,0.0,0.0,96,0.00,,,0.14,,2013-02-16 06:21:00,
2013-02-16 01:32:00,63.0,62.0,29.96,NNW,330,0.0,1.0,96,0.00,,,0.14,,2013-02-16 06:32:00,
2013-02-16 01:42:00,63.0,62.0,29.96,NNW,330,0.0,1.0,96,0.00,,,0.14,,2013-02-16 06:42:00,
2013-02-16 01:52:00,63.0,62.0,29.94,NNW,330,0.0,0.0,96,0.00,,,0.14,,2013-02-16 06:52:00,
2013-02-16 02:02:00,63.0,62.0,29.94,NNW,330,0.0,0.0,96,0.00,,,0.14,,2013-02-16 07:02:00,
2013-02-16 02:11:00,63.0,62.0,29.94,NNW,330,0.0,0.0,96,0.00,,,0.14,,2013-02-16 07:11:00,
2013-02-16 02:21:00,63.0,62.0,29.93,NNW,330,0.0,0.0,96,0.00,,,0.14,,2013-02-16 07:21:00,
2013-02-16 02:32:00,63.0,62.0,29.93,NNW,330,0.0,0.0,96,0.00,,,0.14,,2013-02-16 07:32:00,
2013-02-16 02:42:00,63.0,62.0,29.93,NNW,330,0.0,0.0,96,0.00,,,0.14,,2013-02-16 07:42:00,
2013-02-16 02:53:00,63.0,62.0,29.92,NNW,330,0.0,0.0,96,0.00,,,0.14,,2013-02-16 07:53:00,
2013-02-16 03:01:00,63.0,62.0,29.92,NNW,330,0.0,0.0,96,0.00,,,0.14,,2013-02-16 08:01:00,
2013-02-16 03:11:00,63.0,62.0,29.92,NNW,330,0.0,0.0,96,0.00,,,0.14,,2013-02-16 08:11:00,
2013-02-16 03:21:00,63.0,62.0,29.91,NNW,330,0.0,0.0,96,0.00,,,0.14,,2013-02-16 08:21:00,
2013-02-16 03:31:00,63.0,62.0,29.91,NNW,330,0.0,0.0,96,0.00,,,0.14,,2013-02-16 08:31:00,
2013-02-16 03:42:00,63.0,62.0,29.91,NNW,330,0.0,0.0,96,0.00,,,0.14,,2013-02-16 08:42:00,
2013-02-16 03:52:00,62.0,61.0,29.91,NNW,330,0.0,0.0,96,0.00,,,0.14,,2013-02-16 08:52:00,
2013-02-16 04:01:00,63.0,62.0,29.91,NNW,330,0.0,0.0,96,0.00,,,0.14,,2013-02-16 09:01:00,
2013-02-16 04:11:00,63.0,62.0,29.91,NNW,330,0.0,0.0,96,0.00,,,0.14,,2013-02-16 09:11:00,
2013-02-16 04:21:00,63.0,62.0,29.90,NNW,330,0.0,0.0,96,0.00,,,0.14,,2013-02-16 09:21:00,
2013-02-16 04:32:00,62.0,61.0,29.91,NNW,330,0.0,0.0,96,0.00,,,0.14,,2013-02-16 09:32:00,
2013-02-16 04:42:00,62.0,61.0,29.91,NNW,330,0.0,0.0,96,0.00,,,0.14,,2013-02-16 09:42:00,
2013-02-16 04:52:00,62.0,61.0,29.91,NNW,330,0.0,3.0,96,0.00,,,0.14,,2013-02-16 09:52:00,
2013-02-16 05:01:00,62.0,61.0,29.91,NNW,330,0.0,3.0,96,0.00,,,0.14,,2013-02-16 10:01:00,
2013-02-16 05:11:00,61.0,60.0,29.92,NNW,330,0.0,2.0,95,0.00,,,0.14,,2013-02-16 10:11:00,
2013-02-16 05:21:00,61.0,60.0,29.92,NNW,330,0.0,2.0,95,0.00,,,0.14,,2013-02-16 10:21:00,
2013-02-16 05:32:00,60.0,59.0,29.91,NNW,330,0.0,3.0,95,0.00,,,0.14,,2013-02-16 10:32:00,
2013-02-16 05:42:00,60.0,59.0,29.91,NNW,330,0.0,3.0,95,0.00,,,0.14,,2013-02-16 10:42:00,
2013-02-16 05:52:00,60.0,58.0,29.91,NNW,330,0.0,0.0,94,0.00,,,0.14,,2013-02-16 10:52:00,
2013-02-16 06:02:00,59.0,57.0,29.91,NNW,330,0.0,1.0,94,0.00,,,0.14,,2013-02-16 11:02:00,
2013-02-16 06:11:00,59.0,57.0,29.91,NNW,330,0.0,1.0,94,0.00,,,0.14,,2013-02-16 11:11:00,
2013-02-16 06:22:00,58.0,56.0,29.91,NNW,330,0.0,1.0,94,0.00,,,0.14,,2013-02-16 11:22:00,
2013-02-16 06:32:00,58.0,56.0,29.92,NNW,330,0.0,1.0,94,0.00,,,0.14,,2013-02-16 11:32:00,
2013-02-16 06:42:00,58.0,56.0,29.92,NNW,330,0.0,1.0,94,0.00,,,0.14,,2013-02-16 11:42:00,
2013-02-16 06:52:00,58.0,56.0,29.92,NNW,330,0.0,1.0,94,0.00,,,0.14,,2013-02-16 11:52:00,
2013-02-16 07:02:00,58.0,56.0,29.92,NNW,330,0.0,2.0,94,0.00,,,0.14,,2013-02-16 12:02:00,
2013-02-16 07:12:00,58.0,56.0,29.92,NNW,330,0.0,2.0,94,0.00,,,0.14,,2013-02-16 12:12:00,
2013-02-16 07:22:00,57.0,55.0,29.93,NNW,330,0.0,3.0,94,0.00,,,0.14,,2013-02-16 12:22:00,
2013-02-16 07:32:00,58.0,56.0,29.93,NNW,330,1.0,3.0,94,0.00,,,0.14,,2013-02-16 12:32:00,
2013-02-16 07:42:00,58.0,56.0,29.93,NNW,330,1.0,3.0,94,0.00,,,0.14,,2013-02-16 12:42:00,
2013-02-16 07:52:00,58.0,56.0,29.93,NW,309,1.0,3.0,93,0.00,,,0.14,,2013-02-16 12:52:00,
2013-02-16 08:02:00,58.0,56.0,29.93,NW,309,0.0,3.0,92,0.00,,,0.14,,2013-02-16 13:02:00,
2013-02-16 08:12:00,58.0,55.0,29.93,WNW,301,0.0,1.0,90,0.00,,,0.13,,2013-02-16 13:12:00,
2013-02-16 08:21:00,58.0,55.0,29.93,WNW,301,0.0,1.0,90,0.00,,,0.13,,2013-02-16 13:21:00,
2013-02-16 08:32:00,59.0,55.0,29.93,WNW,301,0.0,1.0,88,0.00,,,0.13,,2013-02-16 13:32:00,
2013-02-16 08:41:00,59.0,55.0,29.93,WNW,301,0.0,1.0,88,0.00,,,0.13,,2013-02-16 13:41:00,
2013-02-16 08:52:00,61.0,55.0,29.94,NNW,340,0.0,7.0,80,0.00,,,0.12,,2013-02-16 13:52:00,
2013-02-16 09:01:00,62.0,55.0,29.94,WNW,296,1.0,7.0,77,0.00,,,0.12,,2013-02-16 14:01:00,
2013-02-16 09:11:00,62.0,55.0,29.94,WNW,296,1.0,7.0,77,0.00,,,0.12,,2013-02-16 14:11:00,
2013-02-16 09:21:00,64.0,54.0,29.95,NW,319,0.0,2.0,71,0.00,,,0.12,,2013-02-16 14:21:00,
2013-02-16 09:32:00,65.0,54.0,29.95,WNW,302,2.0,4.0,68,0.00,,,0.12,,2013-02-16 14:32:00,
2013-02-16 09:42:00,65.0,54.0,29.95,WNW,302,2.0,4.0,68,0.00,,,0.12,,2013-02-16 14:42:00,
2013-02-16 09:52:00,65.0,54.0,29.96,WNW,287,0.0,4.0,68,0.00,,,0.12,,2013-02-16 14:52:00,
2013-02-16 10:02:00,64.0,54.0,29.96,NNW,329,0.0,4.0,69,0.00,,,0.12,,2013-02-16 15:02:00,
2013-02-16 10:11:00,64.0,54.0,29.96,NNW,329,0.0,4.0,69,0.00,,,0.12,,2013-02-16 15:11:00,
2013-02-16 10:22:00,65.0,54.0,29.96,NW,320,0.0,5.0,67,0.00,,,0.10,,2013-02-16 15:22:00,
2013-02-16 10:32:00,67.0,56.0,29.97,NNW,348,2.0,5.0,68,0.00,,,0.10,,2013-02-16 15:32:00,
2013-02-16 10:42:00,67.0,56.0,29.97,NNW,348,2.0,5.0,68,0.00,,,0.10,,2013-02-16 15:42:00,
2013-02-16 10:52:00,68.0,55.0,29.97,WNW,289,2.0,5.0,63,0.00,,,0.10,,2013-02-16 15:52:00,
2013-02-16 11:01:00,69.0,55.0,29.98,WSW,248,3.0,8.0,60,0.00,,,0.10,,2013-02-16 16:01:00,
2013-02-16 11:11:00,69.0,55.0,29.98,WSW,248,3.0,8.0,60,0.00,,,0.10,,2013-02-16 16:11:00,
2013-02-16 11:21:00,70.0,54.0,29.98,WNW,296,5.0,8.0,57,0.00,,,0.10,,2013-02-16 16:21:00,
2013-02-16 11:32:00,70.0,54.0,29.98,NW,311,1.0,10.0,56,0.00,,,0.10,,2013-02-16 16:32:00,
2013-02-16 11:42:00,70.0,54.0,29.98,NW,311,1.0,10.0,56,0.00,,,0.10,,2013-02-16 16:42:00,
2013-02-16 11:52:00,70.0,55.0,29.98,NW,315,5.0,7.0,59,0.00,,,0.10,,2013-02-16 16:52:00,
2013-02-16 12:01:00,70.0,55.0,29.98,North,350,2.0,12.0,60,0.00,,,0.10,,2013-02-16 17:01:00,
2013-02-16 12:11:00,70.0,55.0,29.98,North,350,2.0,12.0,60,0.00,,,0.10,,2013-02-16 17:11:00,
2013-02-16 12:22:00,69.0,55.0,29.98,West,259,8.0,10.0,61,0.00,,,0.05,,2013-02-16 17:22:00,
2013-02-16 12:32:00,69.0,55.0,29.98,WSW,247,3.0,10.0,61,0.00,,,0.05,,2013-02-16 17:32:00,
2013-02-16 12:42:00,69.0,55.0,29.98,WSW,247,3.0,10.0,61,0.00,,,0.05,,2013-02-16 17:42:00,
2013-02-16 12:52:00,69.0,54.0,29.98,WNW,298,6.0,9.0,59,0.00,,,0.03,,2013-02-16 17:52:00,
2013-02-16 13:02:00,70.0,55.0,29.97,NNW,345,3.0,16.0,59,0.00,,,0.03,,2013-02-16 18:02:00,
2013-02-16 13:11:00,70.0,55.0,29.97,NNE,26,5.0,13.0,59,0.00,,,0.02,,2013-02-16 18:11:00,
2013-02-16 13:21:00,70.0,55.0,29.97,NNE,26,5.0,13.0,59,0.00,,,0.02,,2013-02-16 18:21:00,
2013-02-16 13:33:00,69.0,55.0,29.97,West,274,4.0,13.0,60,0.00,,,0.02,,2013-02-16 18:33:00,
2013-02-16 13:42:00,69.0,55.0,29.97,West,274,4.0,13.0,60,0.00,,,0.02,,2013-02-16 18:42:00,
2013-02-16 13:52:00,68.0,54.0,29.96,NNW,333,1.0,14.0,62,0.00,,,0.01,,2013-02-16 18:52:00,
2013-02-16 14:02:00,68.0,54.0,29.96,North,5,2.0,17.0,60,0.00,,,0.01,,2013-02-16 19:02:00,
2013-02-16 14:11:00,68.0,54.0,29.96,North,5,2.0,17.0,60,0.00,,,0.01,,2013-02-16 19:11:00,
2013-02-16 14:21:00,69.0,55.0,29.95,NW,304,10.0,13.0,60,0.00,,,0.00,,2013-02-16 19:21:00,
2013-02-16 14:32:00,70.0,55.0,29.95,NNW,347,3.0,13.0,58,0.00,,,0.00,,2013-02-16 19:32:00,
2013-02-16 14:42:00,70.0,55.0,29.95,NNW,347,3.0,13.0,58,0.00,,,0.00,,2013-02-16 19:42:00,
2013-02-16 14:52:00,69.0,55.0,29.95,WNW,289,4.0,10.0,60,0.00,,,0.00,,2013-02-16 19:52:00,
2013-02-16 15:01:00,69.0,55.0,29.95,NE,54,3.0,15.0,60,0.00,,,0.00,,2013-02-16 20:01:00,
2013-02-16 15:11:00,69.0,54.0,29.94,NW,316,4.0,10.0,59,0.00,,,0.00,,2013-02-16 20:11:00,
2013-02-16 15:21:00,69.0,54.0,29.94,NW,316,4.0,10.0,59,0.00,,,0.00,,2013-02-16 20:21:00,
2013-02-16 15:32:00,69.0,54.0,29.95,West,280,1.0,15.0,58,0.00,,,0.00,,2013-02-16 20:32:00,
2013-02-16 15:42:00,69.0,54.0,29.95,West,280,1.0,15.0,58,0.00,,,0.00,,2013-02-16 20:42:00,
2013-02-16 15:52:00,69.0,55.0,29.95,NW,306,1.0,10.0,61,0.00,,,0.00,,2013-02-16 20:52:00,
2013-02-16 16:02:00,70.0,56.0,29.94,West,273,10.0,13.0,61,0.00,,,0.00,,2013-02-16 21:02:00,
2013-02-16 16:11:00,70.0,56.0,29.94,West,273,10.0,13.0,61,0.00,,,0.00,,2013-02-16 21:11:00,
2013-02-16 16:21:00,70.0,55.0,29.95,West,281,12.0,13.0,58,0.00,,,0.00,,2013-02-16 21:21:00,
2013-02-16 16:32:00,69.0,54.0,29.95,WNW,286,3.0,13.0,58,0.00,,,0.00,,2013-02-16 21:32:00,
2013-02-16 16:42:00,69.0,54.0,29.95,WNW,286,3.0,13.0,58,0.00,,,0.00,,2013-02-16 21:42:00,
2013-02-16 16:52:00,67.0,56.0,29.96,NW,324,3.0,13.0,68,0.00,,,0.00,,2013-02-16 21:52:00,
2013-02-16 17:01:00,66.0,56.0,29.96,NNE,17,3.0,13.0,70,0.00,,,0.00,,2013-02-16 22:01:00,
2013-02-16 17:11:00,66.0,56.0,29.96,NNE,17,3.0,13.0,70,0.00,,,0.00,,2013-02-16 22:11:00,
2013-02-16 17:21:00,66.0,56.0,29.97,SW,233,5.0,10.0,69,0.00,,,0.00,,2013-02-16 22:21:00,
2013-02-16 17:32:00,65.0,55.0,29.97,North,360,3.0,17.0,70,0.00,,,0.00,,2013-02-16 22:32:00,
2013-02-16 17:42:00,65.0,55.0,29.97,North,360,3.0,17.0,70,0.00,,,0.00,,2013-02-16 22:42:00,
2013-02-16 17:52:00,64.0,55.0,29.98,WNW,284,1.0,8.0,73,0.00,,,0.00,,2013-02-16 22:52:00,
2013-02-16 18:02:00,64.0,54.0,29.98,NW,323,1.0,10.0,71,0.00,,,0.00,,2013-02-16 23:02:00,
2013-02-16 18:11:00,63.0,53.0,29.99,NNW,331,3.0,11.0,71,0.00,,,0.00,,2013-02-16 23:11:00,
2013-02-16 18:21:00,63.0,53.0,29.99,NNW,331,3.0,11.0,71,0.00,,,0.00,,2013-02-16 23:21:00,
2013-02-16 18:32:00,62.0,52.0,29.99,North,349,11.0,11.0,70,0.00,,,0.00,,2013-02-16 23:32:00,
2013-02-16 18:42:00,62.0,52.0,29.99,North,349,11.0,11.0,70,0.00,,,0.00,,2013-02-16 23:42:00,
2013-02-16 18:52:00,61.0,51.0,30.00,NNW,336,1.0,9.0,70,0.00,,,0.00,,2013-02-16 23:52:00,
2013-02-16 19:02:00,61.0,52.0,30.01,WNW,299,0.0,9.0,71,0.00,,,0.00,,2013-02-17 00:02:00,
2013-02-16 19:12:00,61.0,52.0,30.01,WNW,299,0.0,9.0,71,0.00,,,0.00,,2013-02-17 00:12:00,
2013-02-16 19:22:00,60.0,50.0,30.02,North,360,2.0,9.0,70,0.00,,,0.00,,2013-02-17 00:22:00,
2013-02-16 19:32:00,60.0,51.0,30.02,NW,315,3.0,10.0,72,0.00,,,0.00,,2013-02-17 00:32:00,
2013-02-16 19:42:00,60.0,51.0,30.02,NW,315,3.0,10.0,72,0.00,,,0.00,,2013-02-17 00:42:00,
2013-02-16 19:52:00,59.0,50.0,30.03,WNW,287,1.0,3.0,73,0.00,,,0.00,,2013-02-17 00:52:00,
2013-02-16 20:01:00,59.0,50.0,30.04,NW,304,0.0,9.0,73,0.00,,,0.00,,2013-02-17 01:01:00,
2013-02-16 20:11:00,59.0,50.0,30.04,NW,304,0.0,9.0,73,0.00,,,0.00,,2013-02-17 01:11:00,
2013-02-16 20:21:00,59.0,50.0,30.04,NW,319,0.0,6.0,73,0.00,,,0.00,,2013-02-17 01:21:00,
2013-02-16 20:31:00,59.0,51.0,30.05,WNW,297,1.0,6.0,74,0.00,,,0.00,,2013-02-17 01:31:00,
2013-02-16 20:41:00,59.0,51.0,30.05,WNW,297,1.0,6.0,74,0.00,,,0.00,,2013-02-17 01:41:00,
2013-02-16 20:52:00,58.0,50.0,30.05,NNW,327,1.0,3.0,75,0.00,,,0.00,,2013-02-17 01:52:00,
2013-02-16 21:01:00,58.0,50.0,30.05,NNW,336,0.0,3.0,75,0.00,,,0.00,,2013-02-17 02:01:00,
2013-02-16 21:11:00,58.0,50.0,30.05,NNW,336,0.0,3.0,75,0.00,,,0.00,,2013-02-17 02:11:00,
2013-02-16 21:21:00,58.0,50.0,30.06,WNW,301,0.0,2.0,75,0.00,,,0.00,,2013-02-17 02:21:00,
2013-02-16 21:31:00,58.0,50.0,30.06,NNW,336,0.0,3.0,76,0.00,,,0.00,,2013-02-17 02:31:00,
2013-02-16 21:41:00,58.0,50.0,30.06,NNW,336,0.0,3.0,76,0.00,,,0.00,,2013-02-17 02:41:00,
2013-02-16 21:52:00,58.0,50.0,30.07,WNW,294,0.0,3.0,76,0.00,,,0.00,,2013-02-17 02:52:00,
2013-02-16 22:02:00,57.0,50.0,30.08,NW,306,0.0,3.0,77,0.00,,,0.00,,2013-02-17 03:02:00,
2013-02-16 22:11:00,57.0,50.0,30.08,NW,306,0.0,3.0,77,0.00,,,0.00,,2013-02-17 03:11:00,
2013-02-16 22:21:00,57.0,50.0,30.08,NNW,336,0.0,0.0,78,0.00,,,0.00,,2013-02-17 03:21:00,
2013-02-16 22:31:00,57.0,51.0,30.08,NNW,336,0.0,0.0,79,0.00,,,0.00,,2013-02-17 03:31:00,
2013-02-16 22:42:00,57.0,51.0,30.08,NNW,336,0.0,0.0,79,0.00,,,0.00,,2013-02-17 03:42:00,
2013-02-16 22:52:00,56.0,50.0,30.09,NNW,336,0.0,2.0,80,0.00,,,0.00,,2013-02-17 03:52:00,
2013-02-16 23:01:00,56.0,50.0,30.09,NNW,331,0.0,2.0,80,0.00,,,0.00,,2013-02-17 04:01:00,
2013-02-16 23:11:00,55.0,49.0,30.09,NNW,331,0.0,0.0,81,0.00,,,0.00,,2013-02-17 04:11:00,
2013-02-16 23:21:00,55.0,49.0,30.09,NNW,331,0.0,0.0,81,0.00,,,0.00,,2013-02-17 04:21:00,
2013-02-16 23:31:00,55.0,50.0,30.09,NNW,331,0.0,0.0,83,0.00,,,0.00,,2013-02-17 04:31:00,
2013-02-16 23:41:00,55.0,50.0,30.09,NNW,331,0.0,0.0,83,0.00,,,0.00,,2013-02-17 04:41:00,
2013-02-16 23:52:00,54.0,49.0,30.09,NNW,331,0.0,0.0,83,0.00,,,0.00,,2013-02-17 04:52:00,